Time;durP1;ratioP1;P1;durP2;ratioP2;P2;SDS_P1;SDS_P2;PMS_P1;PMS_P2;Temp;Humidity;BMP_temperature;BMP_pressure;BME280_temperature;BME280_humidity;BME280_pressure;Samples;Min_cycle;Max_cycle;Signal;HPM_P1;HPM_P2
2023/06/01 00:04:27;;;;;;;13.48;8.98;;;9.60;99.90;;;;;;20896603;28;20048;-46
2023/06/01 00:14:28;;;;;;;15.95;9.15;;;9.80;99.90;;;;;;20905711;28;20075;-48
2023/06/01 00:24:30;;;;;;;12.18;8.75;;;9.90;99.90;;;;;;20912422;28;20439;-46
2023/06/01 00:34:32;;;;;;;10.80;8.27;;;10.20;99.90;;;;;;20910644;28;20556;-45
2023/06/01 00:44:33;;;;;;;14.63;8.63;;;10.30;99.90;;;;;;20915152;28;20544;-44
2023/06/01 00:54:35;;;;;;;11.27;7.65;;;10.40;99.90;;;;;;20911955;28;20451;-47
2023/06/01 01:04:37;;;;;;;10.98;7.97;;;10.50;99.90;;;;;;20912620;28;20067;-44
2023/06/01 01:15:15;;;;;;;11.05;8.27;;;10.30;99.90;;;;;;20908727;28;20098;-46
2023/06/01 01:26:05;;;;;;;13.48;8.10;;;10.00;99.90;;;;;;20718835;28;20050;-43
2023/06/01 01:36:08;;;;;;;14.88;8.27;;;9.90;99.90;;;;;;20714754;28;20384;-45
2023/06/01 01:46:32;;;;;;;11.43;7.03;;;10.00;99.90;;;;;;20735774;28;20061;-45
2023/06/01 01:56:38;;;;;;;9.27;6.45;;;10.10;99.90;;;;;;20797442;28;20053;-47
2023/06/01 02:06:39;;;;;;;10.95;7.28;;;10.20;99.90;;;;;;20906374;28;20482;-44
2023/06/01 02:16:44;;;;;;;10.10;6.40;;;10.10;99.90;;;;;;20900738;28;20060;-43
2023/06/01 02:26:48;;;;;;;14.77;8.40;;;9.90;99.90;;;;;;20902833;28;20395;-44
2023/06/01 02:36:50;;;;;;;11.27;7.90;;;9.80;99.90;;;;;;20901853;28;20454;-48
2023/06/01 02:46:53;;;;;;;13.02;8.35;;;9.90;99.90;;;;;;20900069;28;20033;-45
2023/06/01 02:56:54;;;;;;;11.77;8.00;;;9.80;99.90;;;;;;20899652;28;20045;-47
2023/06/01 03:07:07;;;;;;;12.88;9.25;;;9.70;99.90;;;;;;20902795;28;20048;-44
2023/06/01 03:17:27;;;;;;;15.83;10.33;;;9.60;99.90;;;;;;20903048;28;20033;-46
2023/06/01 03:27:29;;;;;;;14.60;9.45;;;9.40;99.90;;;;;;20903668;28;20036;-43
2023/06/01 03:37:30;;;;;;;13.65;9.25;;;9.40;99.90;;;;;;20898392;28;20059;-44
2023/06/01 03:47:33;;;;;;;12.95;9.27;;;9.30;99.90;;;;;;20907807;28;20037;-46
2023/06/01 03:57:35;;;;;;;16.58;10.10;;;9.20;99.90;;;;;;20913713;28;20033;-43
2023/06/01 04:07:37;;;;;;;13.90;9.68;;;9.40;99.90;;;;;;20913489;28;20032;-47
2023/06/01 04:17:40;;;;;;;13.80;8.65;;;9.70;99.90;;;;;;20912624;28;20025;-43
2023/06/01 04:27:44;;;;;;;14.57;7.85;;;10.00;99.90;;;;;;20917408;28;20098;-51
2023/06/01 04:37:49;;;;;;;12.07;6.90;;;10.20;99.90;;;;;;20914459;28;20473;-44
2023/06/01 04:47:52;;;;;;;8.77;6.35;;;10.70;99.90;;;;;;20907187;28;20162;-46
2023/06/01 04:58:01;;;;;;;9.93;5.80;;;11.30;99.90;;;;;;20904587;28;20186;-44
2023/06/01 05:08:04;;;;;;;9.10;5.30;;;12.10;99.90;;;;;;20906452;28;20041;-48
2023/06/01 05:18:06;;;;;;;8.55;5.63;;;12.80;99.90;;;;;;20908850;28;20377;-47
2023/06/01 05:28:08;;;;;;;9.57;6.30;;;13.30;99.90;;;;;;20906404;28;20033;-46
2023/06/01 05:38:11;;;;;;;7.55;5.43;;;13.80;99.90;;;;;;20905026;28;20045;-44
2023/06/01 05:48:14;;;;;;;8.43;5.15;;;14.30;99.90;;;;;;20904842;28;20040;-47
2023/06/01 05:58:17;;;;;;;9.93;5.53;;;14.60;99.90;;;;;;20904066;28;20037;-47
2023/06/01 06:08:19;;;;;;;7.95;5.10;;;14.10;99.90;;;;;;20900891;28;20035;-49
2023/06/01 06:18:20;;;;;;;11.13;5.45;;;14.80;99.90;;;;;;20902730;28;20094;-46
2023/06/01 06:28:23;;;;;;;7.53;5.03;;;18.30;99.90;;;;;;20902895;28;20033;-54
2023/06/01 06:38:24;;;;;;;6.53;5.43;;;21.10;99.90;;;;;;20904494;28;20098;-54
2023/06/01 06:48:26;;;;;;;7.45;4.82;;;22.90;96.50;;;;;;20898640;28;20136;-54
2023/06/01 06:58:28;;;;;;;6.18;4.72;;;23.60;95.50;;;;;;20899702;28;20099;-55
2023/06/01 07:08:34;;;;;;;6.05;4.90;;;23.70;94.10;;;;;;20897978;28;20036;-48
2023/06/01 07:18:36;;;;;;;8.18;5.47;;;24.90;93.00;;;;;;20899528;28;20025;-49
2023/06/01 07:28:38;;;;;;;5.43;4.57;;;25.20;91.50;;;;;;20911007;28;20037;-53
2023/06/01 07:38:40;;;;;;;6.15;4.68;;;24.50;91.60;;;;;;20911402;28;20037;-47
2023/06/01 07:48:41;;;;;;;6.97;4.80;;;24.50;90.50;;;;;;20917098;28;20045;-56
2023/06/01 07:58:44;;;;;;;5.25;4.75;;;24.30;90.80;;;;;;20915321;28;20106;-55
2023/06/01 08:08:46;;;;;;;5.95;5.00;;;24.20;89.60;;;;;;20914301;28;20039;-55
2023/06/01 08:18:48;;;;;;;6.78;4.55;;;23.80;91.50;;;;;;20916713;28;20036;-55
2023/06/01 08:28:52;;;;;;;5.35;4.80;;;23.40;91.80;;;;;;20912495;28;20029;-55
2023/06/01 08:38:56;;;;;;;9.00;5.50;;;23.80;93.70;;;;;;20910428;28;20033;-54
2023/06/01 08:48:58;;;;;;;7.53;5.75;;;24.60;93.10;;;;;;20910796;28;20044;-56
2023/06/01 08:59:01;;;;;;;8.35;6.07;;;25.00;92.30;;;;;;20909805;28;20033;-56
2023/06/01 09:09:03;;;;;;;8.32;5.72;;;25.50;92.10;;;;;;20907965;28;20025;-50
2023/06/01 09:19:04;;;;;;;8.27;6.20;;;25.90;92.50;;;;;;20908247;28;20386;-56
2023/06/01 09:29:06;;;;;;;7.75;6.75;;;26.00;90.90;;;;;;20910307;28;20032;-55
2023/06/01 09:39:16;;;;;;;6.75;5.75;;;25.50;92.00;;;;;;20916080;28;20037;-54
2023/06/01 09:49:24;;;;;;;6.90;5.78;;;24.90;92.40;;;;;;20904833;28;20036;-53
2023/06/01 09:59:28;;;;;;;8.55;6.40;;;24.50;91.90;;;;;;20903093;28;20052;-53
2023/06/01 10:09:32;;;;;;;9.85;6.65;;;22.70;93.40;;;;;;20907441;28;20037;-53
2023/06/01 10:19:39;;;;;;;10.73;7.28;;;21.70;95.00;;;;;;20907494;28;20032;-51
2023/06/01 10:29:41;;;;;;;11.70;7.03;;;21.70;95.00;;;;;;20902639;28;20415;-52
2023/06/01 10:39:44;;;;;;;12.98;8.00;;;21.40;95.50;;;;;;20905612;28;20037;-53
2023/06/01 10:49:48;;;;;;;10.75;8.52;;;21.30;97.40;;;;;;20901247;28;20029;-53
2023/06/01 11:00:22;;;;;;;9.65;7.72;;;20.70;96.60;;;;;;20900346;28;20090;-46
2023/06/01 11:10:59;;;;;;;11.55;7.85;;;20.30;97.90;;;;;;20899874;28;20397;-52
2023/06/01 11:21:01;;;;;;;12.13;8.02;;;19.70;98.50;;;;;;20898139;28;20470;-54
2023/06/01 11:31:08;;;;;;;9.15;7.43;;;20.30;98.80;;;;;;20905180;28;20025;-52
2023/06/01 11:41:10;;;;;;;11.02;6.78;;;21.40;95.60;;;;;;20896258;28;20041;-55
2023/06/01 11:51:17;;;;;;;14.15;8.05;;;23.40;93.60;;;;;;20898200;28;20044;-57
2023/06/01 12:01:19;;;;;;;11.43;6.90;;;25.10;96.00;;;;;;20900859;28;20467;-57
2023/06/01 12:11:26;;;;;;;9.40;6.88;;;26.50;90.60;;;;;;20901516;28;20087;-55
2023/06/01 12:21:28;;;;;;;7.47;6.65;;;26.80;92.20;;;;;;20912622;28;20494;-56
2023/06/01 12:31:29;;;;;;;8.40;6.65;;;25.40;91.80;;;;;;20913198;28;20036;-55
2023/06/01 12:41:31;;;;;;;7.68;6.78;;;22.90;93.30;;;;;;20903834;28;20450;-51
2023/06/01 12:51:33;;;;;;;12.55;9.32;;;21.40;96.00;;;;;;20910786;28;20040;-53
2023/06/01 13:01:35;;;;;;;10.13;7.30;;;19.80;98.70;;;;;;20917413;28;20041;-53
2023/06/01 13:11:36;;;;;;;6.70;5.88;;;18.60;99.90;;;;;;20913444;28;20033;-49
2023/06/01 13:21:38;;;;;;;7.32;6.50;;;17.90;99.90;;;;;;20906126;28;20041;-51
2023/06/01 13:31:40;;;;;;;8.98;7.10;;;17.10;99.90;;;;;;20906777;28;20090;-49
2023/06/01 13:41:41;;;;;;;8.48;6.20;;;16.10;99.90;;;;;;20914157;28;20048;-49
2023/06/01 13:51:43;;;;;;;7.30;5.15;;;15.60;99.90;;;;;;20906129;28;20029;-48
2023/06/01 14:01:45;;;;;;;6.82;4.47;;;15.70;99.90;;;;;;20917583;28;20032;-49
2023/06/01 14:11:50;;;;;;;5.30;3.92;;;16.30;99.90;;;;;;20904948;28;20029;-54
2023/06/01 14:21:51;;;;;;;7.28;4.13;;;16.90;99.90;;;;;;20908355;28;20056;-52
2023/06/01 14:31:53;;;;;;;4.80;4.00;;;17.50;99.90;;;;;;20902896;28;20385;-44
2023/06/01 14:41:54;;;;;;;5.47;3.40;;;18.30;99.90;;;;;;20904071;28;20485;-53
2023/06/01 14:51:56;;;;;;;3.47;2.97;;;20.10;99.90;;;;;;20902199;28;20041;-44
2023/06/01 15:02:01;;;;;;;4.07;3.47;;;22.40;95.20;;;;;;20900988;28;20083;-53
2023/06/01 15:12:03;;;;;;;5.13;4.13;;;23.70;90.60;;;;;;20900217;28;20547;-54
2023/06/01 15:22:05;;;;;;;5.20;4.15;;;23.70;90.80;;;;;;20900324;28;20667;-52
2023/06/01 15:32:07;;;;;;;5.93;4.20;;;24.20;92.20;;;;;;20899956;28;20098;-45
2023/06/01 15:42:10;;;;;;;6.05;4.72;;;24.10;92.30;;;;;;20907464;28;20045;-50
2023/06/01 15:52:11;;;;;;;5.28;4.72;;;24.90;91.90;;;;;;20913793;28;20032;-50
2023/06/01 16:02:13;;;;;;;6.90;5.78;;;23.60;92.30;;;;;;20915037;28;20040;-50
2023/06/01 16:12:15;;;;;;;6.97;6.22;;;22.20;92.70;;;;;;20913539;28;20367;-46
2023/06/01 16:22:17;;;;;;;6.90;6.22;;;21.30;94.50;;;;;;20916503;28;20433;-49
2023/06/01 16:32:18;;;;;;;8.23;6.43;;;20.20;97.10;;;;;;20911807;28;20106;-49
2023/06/01 16:42:20;;;;;;;10.35;7.47;;;18.90;99.10;;;;;;20911127;28;20115;-48
2023/06/01 16:52:22;;;;;;;10.02;7.60;;;18.30;99.90;;;;;;20914878;28;20531;-50
2023/06/01 17:02:23;;;;;;;8.95;7.30;;;17.90;99.90;;;;;;20911318;28;20091;-51
2023/06/01 17:12:25;;;;;;;8.95;6.90;;;17.90;99.90;;;;;;20909083;28;20036;-52
2023/06/01 17:22:27;;;;;;;7.88;6.97;;;18.00;99.90;;;;;;20908534;28;20432;-53
2023/06/01 17:32:29;;;;;;;11.52;7.38;;;17.90;99.90;;;;;;20911475;28;20033;-49
2023/06/01 17:42:30;;;;;;;9.63;7.68;;;17.80;99.90;;;;;;20901605;28;20096;-53
2023/06/01 17:52:32;;;;;;;8.95;7.53;;;17.40;99.90;;;;;;20904546;28;20045;-50
2023/06/01 18:02:33;;;;;;;9.38;7.05;;;17.10;99.90;;;;;;20907898;28;20040;-48
2023/06/01 18:12:35;;;;;;;9.88;7.35;;;16.50;99.90;;;;;;20903565;28;20060;-56
2023/06/01 18:22:37;;;;;;;11.88;7.97;;;15.80;99.90;;;;;;20908223;28;20040;-48
2023/06/01 18:32:38;;;;;;;8.80;7.53;;;15.30;99.90;;;;;;20903331;28;20474;-49
2023/06/01 18:42:41;;;;;;;12.43;8.95;;;14.80;99.90;;;;;;20903292;28;20045;-49
2023/06/01 18:52:43;;;;;;;9.77;8.10;;;14.50;99.90;;;;;;20901550;28;20114;-50
2023/06/01 19:02:46;;;;;;;13.68;9.57;;;14.30;99.90;;;;;;20902381;28;20044;-44
2023/06/01 19:12:48;;;;;;;17.05;10.20;;;14.10;99.90;;;;;;20898434;28;20036;-49
2023/06/01 19:22:50;;;;;;;11.77;9.15;;;13.90;99.90;;;;;;20899220;28;20041;-49
2023/06/01 19:32:54;;;;;;;14.43;10.20;;;13.60;99.90;;;;;;20900844;28;20033;-48
2023/06/01 19:42:56;;;;;;;15.13;10.70;;;13.40;99.90;;;;;;20898519;28;20090;-46
2023/06/01 19:53:03;;;;;;;15.43;12.05;;;13.20;99.90;;;;;;20903072;28;20087;-51
2023/06/01 20:03:08;;;;;;;18.08;13.18;;;12.90;99.90;;;;;;20898174;28;20083;-47
2023/06/01 20:13:10;;;;;;;19.73;14.77;;;12.50;99.90;;;;;;20898770;28;20029;-45
2023/06/01 20:23:16;;;;;;;23.17;15.10;;;12.20;99.90;;;;;;20900714;28;20093;-46
2023/06/01 20:33:24;;;;;;;19.35;15.48;;;11.80;99.90;;;;;;20907538;28;20049;-44
2023/06/01 20:43:26;;;;;;;21.65;16.65;;;11.50;99.90;;;;;;20907292;28;20033;-47
2023/06/01 20:53:27;;;;;;;22.83;16.27;;;11.40;99.90;;;;;;20914956;28;20036;-52
2023/06/01 21:03:29;;;;;;;21.98;15.77;;;11.20;99.90;;;;;;20909102;28;20082;-50
2023/06/01 21:13:31;;;;;;;25.25;17.38;;;11.30;99.90;;;;;;20908889;28;20060;-50
2023/06/01 21:23:33;;;;;;;25.50;15.80;;;11.20;99.90;;;;;;20908777;28;20059;-51
2023/06/01 21:33:35;;;;;;;24.50;16.70;;;11.10;99.90;;;;;;20911241;28;20075;-48
2023/06/01 21:43:37;;;;;;;18.80;14.07;;;11.00;99.90;;;;;;20904503;28;20040;-47
2023/06/01 21:53:38;;;;;;;25.75;16.65;;;11.20;99.90;;;;;;20905674;28;20090;-48
2023/06/01 22:03:40;;;;;;;20.52;16.90;;;11.10;99.90;;;;;;20905517;28;20041;-50
2023/06/01 22:13:42;;;;;;;21.73;16.42;;;10.90;99.90;;;;;;20908367;28;20098;-49
2023/06/01 22:23:44;;;;;;;29.55;20.38;;;10.80;99.90;;;;;;20901402;28;20029;-48
2023/06/01 22:33:46;;;;;;;29.58;18.55;;;10.70;99.90;;;;;;20905456;28;20049;-47
2023/06/01 22:43:47;;;;;;;28.70;20.25;;;10.50;99.90;;;;;;20906438;28;20563;-43
2023/06/01 22:53:49;;;;;;;24.30;18.08;;;10.50;99.90;;;;;;20904373;28;20037;-46
2023/06/01 23:03:52;;;;;;;24.25;19.45;;;10.40;99.90;;;;;;20902376;28;20037;-50
2023/06/01 23:13:54;;;;;;;25.20;19.27;;;10.50;99.90;;;;;;20899644;28;20029;-44
2023/06/01 23:23:57;;;;;;;26.00;19.42;;;10.50;99.90;;;;;;20900272;28;20029;-45
2023/06/01 23:33:59;;;;;;;24.65;18.15;;;10.50;99.90;;;;;;20899240;28;20056;-44
2023/06/01 23:44:01;;;;;;;28.42;17.40;;;10.50;99.90;;;;;;20899312;28;20063;-52
2023/06/01 23:54:03;;;;;;;19.40;15.13;;;10.30;99.90;;;;;;20898942;28;20107;-44
